sensor_id;sensor_type;location;lat;lon;timestamp;P1;durP1;ratioP1;P2;durP2;ratioP2
50549;SDS011;36505;52.512;13.460;2023-12-20T00:02:11;4.80;;;3.13;;
50549;SDS011;36505;52.512;13.460;2023-12-20T00:04:37;5.55;;;3.47;;
50549;SDS011;36505;52.512;13.460;2023-12-20T00:07:02;4.35;;;2.92;;
50549;SDS011;36505;52.512;13.460;2023-12-20T00:09:27;4.90;;;3.30;;
50549;SDS011;36505;52.512;13.460;2023-12-20T00:11:53;4.78;;;3.10;;
50549;SDS011;36505;52.512;13.460;2023-12-20T00:14:18;5.22;;;3.33;;
50549;SDS011;36505;52.512;13.460;2023-12-20T00:16:43;4.25;;;2.78;;
50549;SDS011;36505;52.512;13.460;2023-12-20T00:19:09;3.80;;;3.00;;
50549;SDS011;36505;52.512;13.460;2023-12-20T00:21:34;4.45;;;3.25;;
50549;SDS011;36505;52.512;13.460;2023-12-20T00:23:59;5.57;;;2.72;;
50549;SDS011;36505;52.512;13.460;2023-12-20T00:26:25;3.50;;;2.47;;
50549;SDS011;36505;52.512;13.460;2023-12-20T00:28:50;4.25;;;3.00;;
50549;SDS011;36505;52.512;13.460;2023-12-20T00:31:16;5.28;;;2.80;;
50549;SDS011;36505;52.512;13.460;2023-12-20T00:33:41;3.83;;;2.50;;
50549;SDS011;36505;52.512;13.460;2023-12-20T00:36:08;4.22;;;2.67;;
50549;SDS011;36505;52.512;13.460;2023-12-20T00:38:34;3.78;;;2.65;;
50549;SDS011;36505;52.512;13.460;2023-12-20T00:41:00;2.97;;;2.30;;
50549;SDS011;36505;52.512;13.460;2023-12-20T00:43:25;4.30;;;2.90;;
50549;SDS011;36505;52.512;13.460;2023-12-20T00:45:51;3.60;;;2.70;;
50549;SDS011;36505;52.512;13.460;2023-12-20T00:48:16;3.75;;;2.88;;
50549;SDS011;36505;52.512;13.460;2023-12-20T00:50:41;3.67;;;2.40;;
50549;SDS011;36505;52.512;13.460;2023-12-20T00:53:07;3.92;;;2.97;;
50549;SDS011;36505;52.512;13.460;2023-12-20T00:55:32;3.78;;;2.50;;
50549;SDS011;36505;52.512;13.460;2023-12-20T00:57:57;3.78;;;2.75;;
50549;SDS011;36505;52.512;13.460;2023-12-20T01:00:24;5.03;;;2.70;;
50549;SDS011;36505;52.512;13.460;2023-12-20T01:02:49;3.50;;;2.53;;
50549;SDS011;36505;52.512;13.460;2023-12-20T01:05:16;5.30;;;2.80;;
50549;SDS011;36505;52.512;13.460;2023-12-20T01:07:42;3.67;;;2.60;;
50549;SDS011;36505;52.512;13.460;2023-12-20T01:10:08;3.15;;;2.28;;
50549;SDS011;36505;52.512;13.460;2023-12-20T01:12:33;3.75;;;2.50;;
50549;SDS011;36505;52.512;13.460;2023-12-20T01:14:59;3.83;;;2.85;;
50549;SDS011;36505;52.512;13.460;2023-12-20T01:17:24;2.97;;;2.35;;
50549;SDS011;36505;52.512;13.460;2023-12-20T01:19:50;3.80;;;2.72;;
50549;SDS011;36505;52.512;13.460;2023-12-20T01:22:15;3.38;;;2.55;;
50549;SDS011;36505;52.512;13.460;2023-12-20T01:24:40;3.35;;;2.42;;
50549;SDS011;36505;52.512;13.460;2023-12-20T01:27:06;2.63;;;2.13;;
50549;SDS011;36505;52.512;13.460;2023-12-20T01:29:31;4.10;;;2.55;;
50549;SDS011;36505;52.512;13.460;2023-12-20T01:31:56;3.25;;;2.70;;
50549;SDS011;36505;52.512;13.460;2023-12-20T01:34:22;3.78;;;2.22;;
50549;SDS011;36505;52.512;13.460;2023-12-20T01:36:47;2.90;;;2.40;;
50549;SDS011;36505;52.512;13.460;2023-12-20T01:39:12;3.63;;;2.78;;
50549;SDS011;36505;52.512;13.460;2023-12-20T01:41:38;4.05;;;2.85;;
50549;SDS011;36505;52.512;13.460;2023-12-20T01:44:04;2.80;;;2.10;;
50549;SDS011;36505;52.512;13.460;2023-12-20T01:46:29;2.90;;;2.30;;
50549;SDS011;36505;52.512;13.460;2023-12-20T01:48:55;2.45;;;2.20;;
50549;SDS011;36505;52.512;13.460;2023-12-20T01:51:21;4.82;;;2.60;;
50549;SDS011;36505;52.512;13.460;2023-12-20T01:53:47;3.88;;;2.38;;
50549;SDS011;36505;52.512;13.460;2023-12-20T01:56:13;2.78;;;2.10;;
50549;SDS011;36505;52.512;13.460;2023-12-20T01:58:40;2.53;;;2.00;;
50549;SDS011;36505;52.512;13.460;2023-12-20T02:01:09;2.95;;;2.10;;
50549;SDS011;36505;52.512;13.460;2023-12-20T02:03:35;3.00;;;2.13;;
50549;SDS011;36505;52.512;13.460;2023-12-20T02:06:02;2.55;;;2.05;;
50549;SDS011;36505;52.512;13.460;2023-12-20T02:08:28;3.05;;;2.22;;
50549;SDS011;36505;52.512;13.460;2023-12-20T02:10:53;2.65;;;1.92;;
50549;SDS011;36505;52.512;13.460;2023-12-20T02:13:20;2.63;;;2.08;;
50549;SDS011;36505;52.512;13.460;2023-12-20T02:15:45;2.83;;;1.80;;
50549;SDS011;36505;52.512;13.460;2023-12-20T02:18:11;3.20;;;2.10;;
50549;SDS011;36505;52.512;13.460;2023-12-20T02:20:40;1.90;;;1.40;;
50549;SDS011;36505;52.512;13.460;2023-12-20T02:23:05;1.88;;;1.52;;
50549;SDS011;36505;52.512;13.460;2023-12-20T02:25:31;1.77;;;1.30;;
50549;SDS011;36505;52.512;13.460;2023-12-20T02:27:56;2.00;;;1.63;;
50549;SDS011;36505;52.512;13.460;2023-12-20T02:30:21;2.35;;;1.38;;
50549;SDS011;36505;52.512;13.460;2023-12-20T02:32:47;2.38;;;1.70;;
50549;SDS011;36505;52.512;13.460;2023-12-20T02:35:14;1.60;;;1.00;;
50549;SDS011;36505;52.512;13.460;2023-12-20T02:37:40;4.80;;;1.27;;
50549;SDS011;36505;52.512;13.460;2023-12-20T02:40:05;1.92;;;1.45;;
50549;SDS011;36505;52.512;13.460;2023-12-20T02:42:31;2.40;;;1.10;;
50549;SDS011;36505;52.512;13.460;2023-12-20T02:44:57;1.67;;;1.10;;
50549;SDS011;36505;52.512;13.460;2023-12-20T02:47:22;1.67;;;1.20;;
50549;SDS011;36505;52.512;13.460;2023-12-20T02:49:48;1.55;;;1.30;;
50549;SDS011;36505;52.512;13.460;2023-12-20T02:52:14;1.67;;;1.05;;
50549;SDS011;36505;52.512;13.460;2023-12-20T02:54:39;3.90;;;1.42;;
50549;SDS011;36505;52.512;13.460;2023-12-20T02:57:05;1.95;;;1.10;;
50549;SDS011;36505;52.512;13.460;2023-12-20T02:59:31;2.25;;;1.08;;
50549;SDS011;36505;52.512;13.460;2023-12-20T03:01:56;1.58;;;1.30;;
50549;SDS011;36505;52.512;13.460;2023-12-20T03:04:22;3.00;;;1.60;;
50549;SDS011;36505;52.512;13.460;2023-12-20T03:06:47;2.08;;;1.45;;
50549;SDS011;36505;52.512;13.460;2023-12-20T03:09:13;1.33;;;1.20;;
50549;SDS011;36505;52.512;13.460;2023-12-20T03:11:38;3.33;;;1.80;;
50549;SDS011;36505;52.512;13.460;2023-12-20T03:14:04;2.33;;;1.90;;
50549;SDS011;36505;52.512;13.460;2023-12-20T03:16:29;2.45;;;1.60;;
50549;SDS011;36505;52.512;13.460;2023-12-20T03:18:56;2.63;;;1.58;;
50549;SDS011;36505;52.512;13.460;2023-12-20T03:21:21;2.10;;;1.60;;
50549;SDS011;36505;52.512;13.460;2023-12-20T03:23:47;2.38;;;1.65;;
50549;SDS011;36505;52.512;13.460;2023-12-20T03:26:12;4.13;;;2.17;;
50549;SDS011;36505;52.512;13.460;2023-12-20T03:28:38;2.60;;;1.73;;
50549;SDS011;36505;52.512;13.460;2023-12-20T03:31:04;3.50;;;2.20;;
50549;SDS011;36505;52.512;13.460;2023-12-20T03:33:29;3.30;;;2.00;;
50549;SDS011;36505;52.512;13.460;2023-12-20T03:35:55;5.43;;;1.95;;
50549;SDS011;36505;52.512;13.460;2023-12-20T03:38:21;4.95;;;2.28;;
50549;SDS011;36505;52.512;13.460;2023-12-20T03:40:49;2.72;;;1.52;;
50549;SDS011;36505;52.512;13.460;2023-12-20T03:43:14;3.65;;;1.65;;
50549;SDS011;36505;52.512;13.460;2023-12-20T03:45:40;6.47;;;2.42;;
50549;SDS011;36505;52.512;13.460;2023-12-20T03:48:05;3.45;;;1.92;;
50549;SDS011;36505;52.512;13.460;2023-12-20T03:50:31;6.78;;;2.15;;
50549;SDS011;36505;52.512;13.460;2023-12-20T03:52:56;2.97;;;1.58;;
50549;SDS011;36505;52.512;13.460;2023-12-20T03:55:22;3.47;;;1.83;;
50549;SDS011;36505;52.512;13.460;2023-12-20T03:57:47;5.85;;;1.75;;
50549;SDS011;36505;52.512;13.460;2023-12-20T04:00:13;4.32;;;1.80;;
50549;SDS011;36505;52.512;13.460;2023-12-20T04:02:39;2.75;;;1.52;;
50549;SDS011;36505;52.512;13.460;2023-12-20T04:05:08;5.00;;;1.67;;
50549;SDS011;36505;52.512;13.460;2023-12-20T04:07:37;3.25;;;1.38;;
50549;SDS011;36505;52.512;13.460;2023-12-20T04:10:03;2.22;;;1.27;;
50549;SDS011;36505;52.512;13.460;2023-12-20T04:12:29;3.30;;;1.27;;
50549;SDS011;36505;52.512;13.460;2023-12-20T04:14:55;2.97;;;1.48;;
50549;SDS011;36505;52.512;13.460;2023-12-20T04:17:20;2.40;;;1.17;;
50549;SDS011;36505;52.512;13.460;2023-12-20T04:19:48;3.20;;;1.45;;
50549;SDS011;36505;52.512;13.460;2023-12-20T04:22:13;3.20;;;1.38;;
50549;SDS011;36505;52.512;13.460;2023-12-20T04:24:39;5.03;;;1.10;;
50549;SDS011;36505;52.512;13.460;2023-12-20T04:27:04;3.67;;;1.50;;
50549;SDS011;36505;52.512;13.460;2023-12-20T04:29:30;3.00;;;1.10;;
50549;SDS011;36505;52.512;13.460;2023-12-20T04:31:55;4.03;;;1.17;;
50549;SDS011;36505;52.512;13.460;2023-12-20T04:34:21;6.85;;;1.55;;
50549;SDS011;36505;52.512;13.460;2023-12-20T04:36:48;3.25;;;1.25;;
50549;SDS011;36505;52.512;13.460;2023-12-20T04:39:13;5.97;;;2.10;;
50549;SDS011;36505;52.512;13.460;2023-12-20T04:41:40;2.85;;;1.42;;
50549;SDS011;36505;52.512;13.460;2023-12-20T04:44:05;8.27;;;1.38;;
50549;SDS011;36505;52.512;13.460;2023-12-20T04:46:31;2.88;;;1.10;;
50549;SDS011;36505;52.512;13.460;2023-12-20T04:48:56;6.22;;;1.48;;
50549;SDS011;36505;52.512;13.460;2023-12-20T04:51:22;3.63;;;1.10;;
50549;SDS011;36505;52.512;13.460;2023-12-20T04:53:47;5.72;;;1.70;;
50549;SDS011;36505;52.512;13.460;2023-12-20T04:56:13;6.38;;;1.65;;
50549;SDS011;36505;52.512;13.460;2023-12-20T04:58:38;6.38;;;1.10;;
50549;SDS011;36505;52.512;13.460;2023-12-20T05:01:05;4.05;;;1.17;;
50549;SDS011;36505;52.512;13.460;2023-12-20T05:03:31;2.58;;;1.15;;
50549;SDS011;36505;52.512;13.460;2023-12-20T05:05:56;4.15;;;1.17;;
50549;SDS011;36505;52.512;13.460;2023-12-20T05:08:22;4.50;;;1.60;;
50549;SDS011;36505;52.512;13.460;2023-12-20T05:10:47;4.07;;;1.17;;
50549;SDS011;36505;52.512;13.460;2023-12-20T05:13:13;7.28;;;1.40;;
50549;SDS011;36505;52.512;13.460;2023-12-20T05:15:38;2.25;;;1.17;;
50549;SDS011;36505;52.512;13.460;2023-12-20T05:18:04;6.30;;;1.35;;
50549;SDS011;36505;52.512;13.460;2023-12-20T05:20:29;3.78;;;1.42;;
50549;SDS011;36505;52.512;13.460;2023-12-20T05:22:54;5.10;;;0.98;;
50549;SDS011;36505;52.512;13.460;2023-12-20T05:25:20;4.57;;;1.10;;
50549;SDS011;36505;52.512;13.460;2023-12-20T05:27:45;3.40;;;1.30;;
50549;SDS011;36505;52.512;13.460;2023-12-20T05:30:11;5.95;;;1.38;;
50549;SDS011;36505;52.512;13.460;2023-12-20T05:32:36;5.28;;;1.77;;
50549;SDS011;36505;52.512;13.460;2023-12-20T05:35:02;3.60;;;1.20;;
50549;SDS011;36505;52.512;13.460;2023-12-20T05:37:28;3.08;;;1.13;;
50549;SDS011;36505;52.512;13.460;2023-12-20T05:39:53;5.95;;;1.50;;
50549;SDS011;36505;52.512;13.460;2023-12-20T05:42:19;4.55;;;1.02;;
50549;SDS011;36505;52.512;13.460;2023-12-20T05:44:44;7.50;;;2.72;;
50549;SDS011;36505;52.512;13.460;2023-12-20T05:47:10;5.97;;;1.33;;
50549;SDS011;36505;52.512;13.460;2023-12-20T05:49:35;4.40;;;0.95;;
50549;SDS011;36505;52.512;13.460;2023-12-20T05:52:00;5.43;;;0.90;;
50549;SDS011;36505;52.512;13.460;2023-12-20T05:54:26;4.55;;;1.70;;
50549;SDS011;36505;52.512;13.460;2023-12-20T05:56:51;6.53;;;1.80;;
50549;SDS011;36505;52.512;13.460;2023-12-20T05:59:16;6.38;;;1.35;;
50549;SDS011;36505;52.512;13.460;2023-12-20T06:01:42;7.15;;;1.48;;
50549;SDS011;36505;52.512;13.460;2023-12-20T06:04:07;9.25;;;1.40;;
50549;SDS011;36505;52.512;13.460;2023-12-20T06:06:33;5.10;;;1.33;;
50549;SDS011;36505;52.512;13.460;2023-12-20T06:08:58;5.90;;;1.92;;
50549;SDS011;36505;52.512;13.460;2023-12-20T06:11:23;8.00;;;1.77;;
50549;SDS011;36505;52.512;13.460;2023-12-20T06:13:49;10.07;;;1.30;;
50549;SDS011;36505;52.512;13.460;2023-12-20T06:16:17;6.90;;;1.30;;
50549;SDS011;36505;52.512;13.460;2023-12-20T06:18:43;6.45;;;1.25;;
50549;SDS011;36505;52.512;13.460;2023-12-20T06:21:08;4.18;;;1.38;;
50549;SDS011;36505;52.512;13.460;2023-12-20T06:23:37;4.10;;;1.20;;
50549;SDS011;36505;52.512;13.460;2023-12-20T06:26:03;4.55;;;1.02;;
50549;SDS011;36505;52.512;13.460;2023-12-20T06:28:28;4.50;;;1.48;;
50549;SDS011;36505;52.512;13.460;2023-12-20T06:30:53;10.90;;;1.98;;
50549;SDS011;36505;52.512;13.460;2023-12-20T06:33:20;10.18;;;1.80;;
50549;SDS011;36505;52.512;13.460;2023-12-20T06:35:47;6.00;;;1.48;;
50549;SDS011;36505;52.512;13.460;2023-12-20T06:38:12;8.02;;;1.70;;
50549;SDS011;36505;52.512;13.460;2023-12-20T06:40:38;9.05;;;1.67;;
50549;SDS011;36505;52.512;13.460;2023-12-20T06:43:03;7.68;;;1.30;;
50549;SDS011;36505;52.512;13.460;2023-12-20T06:45:28;6.07;;;2.67;;
50549;SDS011;36505;52.512;13.460;2023-12-20T06:47:54;2.80;;;1.30;;
50549;SDS011;36505;52.512;13.460;2023-12-20T06:50:20;10.65;;;3.50;;
50549;SDS011;36505;52.512;13.460;2023-12-20T06:52:45;9.88;;;3.00;;
50549;SDS011;36505;52.512;13.460;2023-12-20T06:55:11;9.05;;;2.15;;
50549;SDS011;36505;52.512;13.460;2023-12-20T06:57:36;14.23;;;2.10;;
50549;SDS011;36505;52.512;13.460;2023-12-20T07:00:02;7.40;;;1.60;;
50549;SDS011;36505;52.512;13.460;2023-12-20T07:02:28;9.00;;;2.40;;
50549;SDS011;36505;52.512;13.460;2023-12-20T07:04:55;10.80;;;2.13;;
50549;SDS011;36505;52.512;13.460;2023-12-20T07:07:20;5.75;;;2.35;;
50549;SDS011;36505;52.512;13.460;2023-12-20T07:09:48;5.65;;;1.42;;
50549;SDS011;36505;52.512;13.460;2023-12-20T07:12:13;4.25;;;1.30;;
50549;SDS011;36505;52.512;13.460;2023-12-20T07:14:39;5.65;;;2.15;;
50549;SDS011;36505;52.512;13.460;2023-12-20T07:17:04;4.00;;;1.33;;
50549;SDS011;36505;52.512;13.460;2023-12-20T07:19:30;9.10;;;1.63;;
50549;SDS011;36505;52.512;13.460;2023-12-20T07:21:55;9.90;;;1.70;;
50549;SDS011;36505;52.512;13.460;2023-12-20T07:24:20;4.82;;;1.30;;
50549;SDS011;36505;52.512;13.460;2023-12-20T07:26:46;6.60;;;1.40;;
50549;SDS011;36505;52.512;13.460;2023-12-20T07:29:11;3.28;;;1.55;;
50549;SDS011;36505;52.512;13.460;2023-12-20T07:31:36;3.05;;;1.58;;
50549;SDS011;36505;52.512;13.460;2023-12-20T07:34:03;4.50;;;1.88;;
50549;SDS011;36505;52.512;13.460;2023-12-20T07:36:28;6.40;;;2.22;;
50549;SDS011;36505;52.512;13.460;2023-12-20T07:38:54;7.78;;;2.22;;
50549;SDS011;36505;52.512;13.460;2023-12-20T07:41:19;6.90;;;2.00;;
50549;SDS011;36505;52.512;13.460;2023-12-20T07:43:46;9.40;;;1.73;;
50549;SDS011;36505;52.512;13.460;2023-12-20T07:46:12;9.43;;;1.92;;
50549;SDS011;36505;52.512;13.460;2023-12-20T07:48:37;6.68;;;1.83;;
50549;SDS011;36505;52.512;13.460;2023-12-20T07:51:03;3.88;;;1.83;;
50549;SDS011;36505;52.512;13.460;2023-12-20T07:53:30;11.85;;;2.78;;
50549;SDS011;36505;52.512;13.460;2023-12-20T07:55:56;10.35;;;2.70;;
50549;SDS011;36505;52.512;13.460;2023-12-20T07:58:21;7.43;;;1.85;;
50549;SDS011;36505;52.512;13.460;2023-12-20T08:00:47;7.70;;;1.83;;
50549;SDS011;36505;52.512;13.460;2023-12-20T08:03:12;5.05;;;1.92;;
50549;SDS011;36505;52.512;13.460;2023-12-20T08:05:38;6.63;;;1.80;;
50549;SDS011;36505;52.512;13.460;2023-12-20T08:08:05;6.28;;;1.80;;
50549;SDS011;36505;52.512;13.460;2023-12-20T08:10:31;9.48;;;1.92;;
50549;SDS011;36505;52.512;13.460;2023-12-20T08:12:56;5.43;;;1.67;;
50549;SDS011;36505;52.512;13.460;2023-12-20T08:15:22;10.45;;;2.00;;
50549;SDS011;36505;52.512;13.460;2023-12-20T08:17:48;11.77;;;2.78;;
50549;SDS011;36505;52.512;13.460;2023-12-20T08:20:15;5.53;;;1.70;;
50549;SDS011;36505;52.512;13.460;2023-12-20T08:22:41;6.72;;;1.40;;
50549;SDS011;36505;52.512;13.460;2023-12-20T08:25:06;8.27;;;2.38;;
50549;SDS011;36505;52.512;13.460;2023-12-20T08:27:33;6.00;;;1.42;;
50549;SDS011;36505;52.512;13.460;2023-12-20T08:29:59;7.18;;;2.10;;
50549;SDS011;36505;52.512;13.460;2023-12-20T08:32:27;3.80;;;1.85;;
50549;SDS011;36505;52.512;13.460;2023-12-20T08:34:52;4.88;;;1.75;;
50549;SDS011;36505;52.512;13.460;2023-12-20T08:37:18;7.20;;;2.30;;
50549;SDS011;36505;52.512;13.460;2023-12-20T08:39:43;6.40;;;2.53;;
50549;SDS011;36505;52.512;13.460;2023-12-20T08:42:09;6.30;;;2.20;;
50549;SDS011;36505;52.512;13.460;2023-12-20T08:44:34;14.40;;;2.40;;
50549;SDS011;36505;52.512;13.460;2023-12-20T08:46:59;8.30;;;2.05;;
50549;SDS011;36505;52.512;13.460;2023-12-20T08:49:25;4.80;;;2.00;;
50549;SDS011;36505;52.512;13.460;2023-12-20T08:51:50;8.02;;;2.22;;
50549;SDS011;36505;52.512;13.460;2023-12-20T08:54:16;5.88;;;1.92;;
50549;SDS011;36505;52.512;13.460;2023-12-20T08:56:42;12.38;;;2.25;;
50549;SDS011;36505;52.512;13.460;2023-12-20T08:59:09;5.93;;;2.15;;
50549;SDS011;36505;52.512;13.460;2023-12-20T09:01:34;6.32;;;1.60;;
50549;SDS011;36505;52.512;13.460;2023-12-20T09:04:00;7.13;;;1.85;;
50549;SDS011;36505;52.512;13.460;2023-12-20T09:06:25;10.13;;;2.10;;
50549;SDS011;36505;52.512;13.460;2023-12-20T09:08:51;4.72;;;1.83;;
50549;SDS011;36505;52.512;13.460;2023-12-20T09:11:16;12.13;;;1.95;;
50549;SDS011;36505;52.512;13.460;2023-12-20T09:13:42;5.35;;;2.13;;
50549;SDS011;36505;52.512;13.460;2023-12-20T09:16:09;6.57;;;1.80;;
50549;SDS011;36505;52.512;13.460;2023-12-20T09:18:34;5.55;;;1.90;;
50549;SDS011;36505;52.512;13.460;2023-12-20T09:21:00;5.40;;;1.65;;
50549;SDS011;36505;52.512;13.460;2023-12-20T09:23:25;9.15;;;1.58;;
50549;SDS011;36505;52.512;13.460;2023-12-20T09:25:51;5.82;;;2.35;;
50549;SDS011;36505;52.512;13.460;2023-12-20T09:28:16;6.35;;;1.92;;
50549;SDS011;36505;52.512;13.460;2023-12-20T09:30:42;8.35;;;1.92;;
50549;SDS011;36505;52.512;13.460;2023-12-20T09:33:07;7.43;;;2.45;;
50549;SDS011;36505;52.512;13.460;2023-12-20T09:35:32;10.18;;;2.10;;
50549;SDS011;36505;52.512;13.460;2023-12-20T09:37:58;7.85;;;2.33;;
50549;SDS011;36505;52.512;13.460;2023-12-20T09:40:23;6.47;;;2.08;;
50549;SDS011;36505;52.512;13.460;2023-12-20T09:42:55;5.97;;;1.88;;
50549;SDS011;36505;52.512;13.460;2023-12-20T09:45:35;5.93;;;1.50;;
50549;SDS011;36505;52.512;13.460;2023-12-20T09:48:00;7.13;;;1.50;;
50549;SDS011;36505;52.512;13.460;2023-12-20T09:50:27;10.43;;;2.72;;
50549;SDS011;36505;52.512;13.460;2023-12-20T09:52:55;8.88;;;1.75;;
50549;SDS011;36505;52.512;13.460;2023-12-20T09:55:24;7.20;;;2.30;;
50549;SDS011;36505;52.512;13.460;2023-12-20T09:57:51;11.63;;;2.15;;
50549;SDS011;36505;52.512;13.460;2023-12-20T10:00:17;10.50;;;2.53;;
50549;SDS011;36505;52.512;13.460;2023-12-20T10:02:49;9.77;;;1.88;;
50549;SDS011;36505;52.512;13.460;2023-12-20T10:05:19;14.27;;;2.00;;
50549;SDS011;36505;52.512;13.460;2023-12-20T10:07:52;7.80;;;1.83;;
50549;SDS011;36505;52.512;13.460;2023-12-20T10:10:17;6.78;;;1.83;;
50549;SDS011;36505;52.512;13.460;2023-12-20T10:13:00;6.93;;;1.65;;
50549;SDS011;36505;52.512;13.460;2023-12-20T10:15:26;9.73;;;2.05;;
50549;SDS011;36505;52.512;13.460;2023-12-20T10:17:52;8.65;;;2.28;;
50549;SDS011;36505;52.512;13.460;2023-12-20T10:20:17;7.25;;;2.60;;
50549;SDS011;36505;52.512;13.460;2023-12-20T10:22:42;9.20;;;2.30;;
50549;SDS011;36505;52.512;13.460;2023-12-20T10:25:08;13.20;;;2.85;;
50549;SDS011;36505;52.512;13.460;2023-12-20T10:27:33;5.88;;;2.05;;
50549;SDS011;36505;52.512;13.460;2023-12-20T10:29:59;9.13;;;2.60;;
50549;SDS011;36505;52.512;13.460;2023-12-20T10:32:25;11.60;;;2.55;;
50549;SDS011;36505;52.512;13.460;2023-12-20T10:34:52;9.20;;;2.22;;
50549;SDS011;36505;52.512;13.460;2023-12-20T10:37:19;7.78;;;2.47;;
50549;SDS011;36505;52.512;13.460;2023-12-20T10:39:49;4.22;;;1.90;;
50549;SDS011;36505;52.512;13.460;2023-12-20T10:42:26;5.85;;;2.08;;
50549;SDS011;36505;52.512;13.460;2023-12-20T10:44:52;8.25;;;2.60;;
50549;SDS011;36505;52.512;13.460;2023-12-20T10:47:19;5.68;;;2.00;;
50549;SDS011;36505;52.512;13.460;2023-12-20T10:49:45;13.55;;;2.35;;
50549;SDS011;36505;52.512;13.460;2023-12-20T10:52:11;8.27;;;2.13;;
50549;SDS011;36505;52.512;13.460;2023-12-20T10:54:38;8.70;;;3.72;;
50549;SDS011;36505;52.512;13.460;2023-12-20T10:57:05;10.50;;;2.95;;
50549;SDS011;36505;52.512;13.460;2023-12-20T10:59:33;8.98;;;2.90;;
50549;SDS011;36505;52.512;13.460;2023-12-20T11:02:01;7.38;;;2.45;;
50549;SDS011;36505;52.512;13.460;2023-12-20T11:04:31;13.02;;;2.10;;
50549;SDS011;36505;52.512;13.460;2023-12-20T11:07:54;6.07;;;2.05;;
50549;SDS011;36505;52.512;13.460;2023-12-20T11:15:35;5.35;;;1.98;;
50549;SDS011;36505;52.512;13.460;2023-12-20T11:18:02;7.28;;;1.83;;
50549;SDS011;36505;52.512;13.460;2023-12-20T11:20:38;10.52;;;2.10;;
50549;SDS011;36505;52.512;13.460;2023-12-20T11:23:05;10.05;;;2.28;;
50549;SDS011;36505;52.512;13.460;2023-12-20T11:28:25;7.38;;;2.13;;
50549;SDS011;36505;52.512;13.460;2023-12-20T11:33:22;10.00;;;2.30;;
50549;SDS011;36505;52.512;13.460;2023-12-20T11:35:51;9.00;;;2.55;;
50549;SDS011;36505;52.512;13.460;2023-12-20T11:38:20;13.32;;;2.88;;
50549;SDS011;36505;52.512;13.460;2023-12-20T11:40:47;11.07;;;1.98;;
50549;SDS011;36505;52.512;13.460;2023-12-20T11:46:04;8.85;;;2.65;;
50549;SDS011;36505;52.512;13.460;2023-12-20T11:48:50;7.18;;;2.35;;
50549;SDS011;36505;52.512;13.460;2023-12-20T11:51:15;9.77;;;3.05;;
50549;SDS011;36505;52.512;13.460;2023-12-20T11:53:41;13.52;;;3.88;;
50549;SDS011;36505;52.512;13.460;2023-12-20T11:56:07;8.30;;;2.75;;
50549;SDS011;36505;52.512;13.460;2023-12-20T11:58:34;7.43;;;2.17;;
50549;SDS011;36505;52.512;13.460;2023-12-20T12:00:59;9.30;;;2.47;;
50549;SDS011;36505;52.512;13.460;2023-12-20T12:03:27;8.20;;;2.53;;
50549;SDS011;36505;52.512;13.460;2023-12-20T12:05:52;12.90;;;2.58;;
50549;SDS011;36505;52.512;13.460;2023-12-20T12:08:18;4.38;;;2.15;;
50549;SDS011;36505;52.512;13.460;2023-12-20T12:10:44;5.80;;;1.88;;
50549;SDS011;36505;52.512;13.460;2023-12-20T12:13:13;3.30;;;1.75;;
50549;SDS011;36505;52.512;13.460;2023-12-20T12:15:39;14.90;;;2.17;;
50549;SDS011;36505;52.512;13.460;2023-12-20T12:18:07;7.75;;;2.50;;
50549;SDS011;36505;52.512;13.460;2023-12-20T12:20:32;9.38;;;2.97;;
50549;SDS011;36505;52.512;13.460;2023-12-20T12:23:02;11.48;;;2.63;;
50549;SDS011;36505;52.512;13.460;2023-12-20T12:25:30;8.65;;;2.40;;
50549;SDS011;36505;52.512;13.460;2023-12-20T12:27:56;8.57;;;2.60;;
50549;SDS011;36505;52.512;13.460;2023-12-20T12:30:26;10.82;;;2.35;;
50549;SDS011;36505;52.512;13.460;2023-12-20T12:32:55;8.20;;;2.13;;
50549;SDS011;36505;52.512;13.460;2023-12-20T12:35:21;6.38;;;2.45;;
50549;SDS011;36505;52.512;13.460;2023-12-20T12:37:47;5.35;;;2.88;;
50549;SDS011;36505;52.512;13.460;2023-12-20T12:40:13;10.65;;;2.97;;
50549;SDS011;36505;52.512;13.460;2023-12-20T12:42:40;11.27;;;3.08;;
50549;SDS011;36505;52.512;13.460;2023-12-20T12:45:07;10.65;;;2.50;;
50549;SDS011;36505;52.512;13.460;2023-12-20T12:47:33;5.93;;;2.35;;
50549;SDS011;36505;52.512;13.460;2023-12-20T12:49:59;6.63;;;2.50;;
50549;SDS011;36505;52.512;13.460;2023-12-20T12:52:24;5.55;;;1.90;;
50549;SDS011;36505;52.512;13.460;2023-12-20T12:54:51;5.95;;;2.15;;
50549;SDS011;36505;52.512;13.460;2023-12-20T12:57:17;7.65;;;2.40;;
50549;SDS011;36505;52.512;13.460;2023-12-20T12:59:43;8.52;;;2.35;;
50549;SDS011;36505;52.512;13.460;2023-12-20T13:02:12;5.65;;;2.20;;
50549;SDS011;36505;52.512;13.460;2023-12-20T13:04:41;7.22;;;2.22;;
50549;SDS011;36505;52.512;13.460;2023-12-20T13:07:07;7.43;;;2.92;;
50549;SDS011;36505;52.512;13.460;2023-12-20T13:09:33;12.85;;;2.53;;
50549;SDS011;36505;52.512;13.460;2023-12-20T13:11:58;5.22;;;2.05;;
50549;SDS011;36505;52.512;13.460;2023-12-20T13:14:24;6.55;;;2.35;;
50549;SDS011;36505;52.512;13.460;2023-12-20T13:16:49;9.68;;;3.30;;
50549;SDS011;36505;52.512;13.460;2023-12-20T13:19:15;11.68;;;2.53;;
50549;SDS011;36505;52.512;13.460;2023-12-20T13:21:40;11.05;;;2.75;;
50549;SDS011;36505;52.512;13.460;2023-12-20T13:24:06;12.45;;;3.13;;
50549;SDS011;36505;52.512;13.460;2023-12-20T13:26:31;9.52;;;2.97;;
50549;SDS011;36505;52.512;13.460;2023-12-20T13:28:57;8.73;;;2.00;;
50549;SDS011;36505;52.512;13.460;2023-12-20T13:31:23;5.20;;;2.17;;
50549;SDS011;36505;52.512;13.460;2023-12-20T13:33:48;8.48;;;3.05;;
50549;SDS011;36505;52.512;13.460;2023-12-20T13:36:14;2.97;;;1.30;;
50549;SDS011;36505;52.512;13.460;2023-12-20T13:38:39;4.47;;;1.23;;
50549;SDS011;36505;52.512;13.460;2023-12-20T13:41:05;4.57;;;1.60;;
50549;SDS011;36505;52.512;13.460;2023-12-20T13:43:31;4.05;;;1.20;;
50549;SDS011;36505;52.512;13.460;2023-12-20T13:45:57;5.72;;;1.55;;
50549;SDS011;36505;52.512;13.460;2023-12-20T13:48:23;5.57;;;1.20;;
50549;SDS011;36505;52.512;13.460;2023-12-20T13:50:49;2.25;;;1.35;;
50549;SDS011;36505;52.512;13.460;2023-12-20T13:53:14;2.40;;;1.00;;
50549;SDS011;36505;52.512;13.460;2023-12-20T13:55:39;1.77;;;1.10;;
50549;SDS011;36505;52.512;13.460;2023-12-20T13:58:05;4.82;;;1.20;;
50549;SDS011;36505;52.512;13.460;2023-12-20T14:00:30;2.72;;;1.20;;
50549;SDS011;36505;52.512;13.460;2023-12-20T14:02:56;1.98;;;1.20;;
50549;SDS011;36505;52.512;13.460;2023-12-20T14:05:21;2.75;;;1.00;;
50549;SDS011;36505;52.512;13.460;2023-12-20T14:07:48;1.98;;;1.20;;
50549;SDS011;36505;52.512;13.460;2023-12-20T14:10:14;3.03;;;1.40;;
50549;SDS011;36505;52.512;13.460;2023-12-20T14:12:39;6.65;;;1.55;;
50549;SDS011;36505;52.512;13.460;2023-12-20T14:15:05;1.95;;;0.98;;
50549;SDS011;36505;52.512;13.460;2023-12-20T14:17:36;2.45;;;1.20;;
50549;SDS011;36505;52.512;13.460;2023-12-20T14:20:02;4.65;;;1.35;;
50549;SDS011;36505;52.512;13.460;2023-12-20T14:22:29;2.78;;;1.10;;
50549;SDS011;36505;52.512;13.460;2023-12-20T14:24:54;2.35;;;1.38;;
50549;SDS011;36505;52.512;13.460;2023-12-20T14:27:19;7.70;;;1.45;;
50549;SDS011;36505;52.512;13.460;2023-12-20T14:29:47;1.30;;;0.80;;
50549;SDS011;36505;52.512;13.460;2023-12-20T14:32:12;5.15;;;1.45;;
50549;SDS011;36505;52.512;13.460;2023-12-20T14:34:39;1.55;;;0.88;;
50549;SDS011;36505;52.512;13.460;2023-12-20T14:37:05;4.43;;;1.23;;
50549;SDS011;36505;52.512;13.460;2023-12-20T14:39:30;3.88;;;1.25;;
50549;SDS011;36505;52.512;13.460;2023-12-20T14:41:56;4.35;;;1.02;;